Terminal Aerodrome Forecast
Issued by NWS

Home | Current Version | Previous Version | Text Only | Print | Product List | Glossary On
Versions: 1 2 3 4 5 6 7 8 9 10 11 12 13 14 15 16 17 18
000
FTAK31 PAJN 281100
TAFAYA
TAF
PAYA 281132Z 2812/2912 08007KT P6SM -RA FEW020 BKN060 OVC090
      TEMPO 2812/2816 6SM -RA BR SCT015 OVC025
     FM281600 12008KT 6SM -RA SCT010 OVC025
     FM282000 12008KT 4SM -RA SCT010 OVC025
     FM290900 11006KT P6SM OVC040
      TEMPO 2909/2912 P6SM -RA OVC040
      AMD LTD TO CLD VIS AND WIND 2901/2910=

USA.gov is the U.S. government's official web portal to all federal, state and local government web resources and services.